createdAt,value
2022-11-24T00:02:18.631Z,3.17
2022-11-24T00:04:45.435Z,3.45
2022-11-24T00:07:12.190Z,3.38
2022-11-24T00:09:38.987Z,3.38
2022-11-24T00:12:07.108Z,2.83
2022-11-24T00:14:33.918Z,3.60
2022-11-24T00:17:00.756Z,3.25
2022-11-24T00:19:27.459Z,3.10
2022-11-24T00:21:54.157Z,2.60
2022-11-24T00:24:20.970Z,3.30
2022-11-24T00:26:47.646Z,3.65
2022-11-24T00:29:15.896Z,3.65
2022-11-24T00:31:42.787Z,2.85
2022-11-24T00:34:12.394Z,2.88
2022-11-24T00:36:39.534Z,2.83
2022-11-24T00:39:07.810Z,2.60
2022-11-24T00:41:35.008Z,2.95
2022-11-24T00:44:01.833Z,2.40
2022-11-24T00:46:29.996Z,2.67
2022-11-24T00:48:57.420Z,3.25
2022-11-24T00:51:25.738Z,3.28
2022-11-24T00:53:52.637Z,3.10
2022-11-24T00:56:19.530Z,2.50
2022-11-24T00:58:46.237Z,2.88
2022-11-24T01:01:15.030Z,2.95
2022-11-24T01:03:43.627Z,2.97
2022-11-24T01:06:12.487Z,2.58
2022-11-24T01:08:39.960Z,2.42
2022-11-24T01:11:08.823Z,2.85
2022-11-24T01:13:35.627Z,2.63
2022-11-24T01:16:02.323Z,2.33
2022-11-24T01:18:29.268Z,2.78
2022-11-24T01:20:57.271Z,2.90
2022-11-24T01:23:24.092Z,2.70
2022-11-24T01:25:50.813Z,2.80
2022-11-24T01:28:17.488Z,3.47
2022-11-24T01:30:44.205Z,2.83
2022-11-24T01:33:10.981Z,3.38
2022-11-24T01:35:37.661Z,2.65
2022-11-24T01:38:05.687Z,2.70
2022-11-24T01:40:32.327Z,2.97
2022-11-24T01:42:59.083Z,2.67
2022-11-24T01:45:34.841Z,3.30
2022-11-24T01:48:11.170Z,2.30
2022-11-24T01:50:38.023Z,2.47
2022-11-24T01:53:06.054Z,2.80
2022-11-24T01:55:39.558Z,3.03
2022-11-24T01:58:13.052Z,3.47
2022-11-24T02:00:43.507Z,3.20
2022-11-24T02:03:13.477Z,2.47
2022-11-24T02:05:45.876Z,3.72
2022-11-24T02:08:21.047Z,2.90
2022-11-24T02:10:48.499Z,2.65
2022-11-24T02:13:15.535Z,3.95
2022-11-24T02:15:42.662Z,3.03
2022-11-24T02:18:09.545Z,2.92
2022-11-24T02:20:36.340Z,2.70
2022-11-24T02:23:09.431Z,3.67
2022-11-24T02:25:50.281Z,2.92
2022-11-24T02:28:21.113Z,2.83
2022-11-24T02:30:48.507Z,2.92
2022-11-24T02:33:15.260Z,3.42
2022-11-24T02:35:42.078Z,3.10
2022-11-24T02:38:11.350Z,3.28
2022-11-24T02:40:38.122Z,3.75
2022-11-24T02:43:09.622Z,3.55
2022-11-24T02:45:37.752Z,3.20
2022-11-24T02:48:05.019Z,3.60
2022-11-24T02:50:31.752Z,2.78
2022-11-24T02:52:58.428Z,3.47
2022-11-24T02:55:25.248Z,3.15
2022-11-24T02:57:51.951Z,4.20
2022-11-24T03:00:19.175Z,3.03
2022-11-24T03:02:47.235Z,2.83
2022-11-24T03:05:14.197Z,3.17
2022-11-24T03:07:41.220Z,3.53
2022-11-24T03:10:08.593Z,3.72
2022-11-24T03:12:35.207Z,3.83
2022-11-24T03:15:02.077Z,3.55
2022-11-24T03:17:28.991Z,3.45
2022-11-24T03:20:00.194Z,3.40
2022-11-24T03:22:30.880Z,4.30
2022-11-24T03:24:57.550Z,2.85
2022-11-24T03:27:24.243Z,3.80
2022-11-24T03:29:50.862Z,3.47
2022-11-24T03:32:17.677Z,3.50
2022-11-24T03:34:44.428Z,3.47
2022-11-24T03:37:12.514Z,3.60
2022-11-24T03:39:39.118Z,3.47
2022-11-24T03:42:06.095Z,3.72
2022-11-24T03:44:33.152Z,4.53
2022-11-24T03:47:00.112Z,4.07
2022-11-24T03:49:26.848Z,3.95
2022-11-24T03:51:53.696Z,3.65
2022-11-24T03:54:21.779Z,3.13
2022-11-24T03:56:48.656Z,4.38
2022-11-24T03:59:15.362Z,4.22
2022-11-24T04:01:42.286Z,4.05
2022-11-24T04:04:10.842Z,3.65
2022-11-24T04:06:37.609Z,3.20
2022-11-24T04:09:05.056Z,4.28
2022-11-24T04:11:33.202Z,3.90
2022-11-24T04:13:59.873Z,3.92
2022-11-24T04:16:26.556Z,4.25
2022-11-24T04:18:53.379Z,3.97
2022-11-24T04:21:21.045Z,4.05
2022-11-24T04:23:47.681Z,3.55
2022-11-24T04:26:14.550Z,4.45
2022-11-24T04:28:42.451Z,4.10
2022-11-24T04:31:09.204Z,4.43
2022-11-24T04:33:35.778Z,3.47
2022-11-24T04:36:02.422Z,3.25
2022-11-24T04:39:20.159Z,4.07
2022-11-24T04:41:15.763Z,3.65
2022-11-24T04:43:43.688Z,3.88
2022-11-24T04:46:12.210Z,4.00
2022-11-24T04:48:38.849Z,3.30
2022-11-24T04:51:06.083Z,3.25
2022-11-24T04:53:32.653Z,3.20
2022-11-24T04:55:59.396Z,3.83
2022-11-24T04:58:26.069Z,3.83
2022-11-24T05:00:54.130Z,3.53
2022-11-24T05:03:20.773Z,4.00
2022-11-24T05:05:47.392Z,3.67
2022-11-24T05:08:14.072Z,3.60
2022-11-24T05:10:40.771Z,3.72
2022-11-24T05:13:10.640Z,3.35
2022-11-24T05:15:38.840Z,3.47
2022-11-24T05:18:07.879Z,3.70
2022-11-24T05:20:37.593Z,3.50
2022-11-24T05:23:05.421Z,4.15
2022-11-24T05:25:32.693Z,3.67
2022-11-24T05:28:00.305Z,3.55
2022-11-24T05:30:27.043Z,3.83
2022-11-24T05:32:53.617Z,4.50
2022-11-24T05:35:22.106Z,3.95
2022-11-24T05:37:48.760Z,3.38
2022-11-24T05:40:16.039Z,3.38
2022-11-24T05:42:47.356Z,3.45
2022-11-24T05:45:17.371Z,3.42
2022-11-24T05:47:44.149Z,3.22
2022-11-24T05:50:12.613Z,2.97
2022-11-24T05:52:40.771Z,3.35
2022-11-24T05:55:08.833Z,2.90
2022-11-24T05:57:35.747Z,3.63
2022-11-24T06:00:03.841Z,2.83
2022-11-24T06:02:39.108Z,2.67
2022-11-24T06:05:06.187Z,2.85
2022-11-24T06:07:32.781Z,2.13
2022-11-24T06:10:00.840Z,2.58
2022-11-24T06:12:27.506Z,3.45
2022-11-24T06:14:54.115Z,3.40
2022-11-24T06:17:20.627Z,2.75
2022-11-24T06:19:47.318Z,2.75
2022-11-24T06:22:13.989Z,2.55
2022-11-24T06:24:40.621Z,2.30
2022-11-24T06:27:08.584Z,2.10
2022-11-24T06:29:35.343Z,1.92
2022-11-24T06:32:02.169Z,1.80
2022-11-24T06:34:28.834Z,2.47
2022-11-24T06:36:55.387Z,2.08
2022-11-24T06:39:22.015Z,2.10
2022-11-24T06:41:49.664Z,1.98
2022-11-24T06:44:17.869Z,1.30
2022-11-24T06:46:44.589Z,1.15
2022-11-24T06:49:11.341Z,1.20
2022-11-24T06:51:38.004Z,1.60
2022-11-24T06:54:06.659Z,1.33
2022-11-24T06:56:33.254Z,0.77
2022-11-24T06:59:00.097Z,0.98
2022-11-24T07:01:29.698Z,0.95
2022-11-24T07:03:56.886Z,0.63
2022-11-24T07:06:24.815Z,1.20
2022-11-24T07:08:51.812Z,1.00
2022-11-24T07:11:19.988Z,0.90
2022-11-24T07:13:47.316Z,0.90
2022-11-24T07:16:16.327Z,0.80
2022-11-24T07:18:45.743Z,0.85
2022-11-24T07:21:12.317Z,0.63
2022-11-24T07:23:39.647Z,0.77
2022-11-24T07:26:07.363Z,0.50
2022-11-24T07:28:34.831Z,1.00
2022-11-24T07:31:05.287Z,0.80
2022-11-24T07:33:31.880Z,0.90
2022-11-24T07:36:01.411Z,0.85
2022-11-24T07:38:29.001Z,1.13
2022-11-24T07:40:59.903Z,0.70
2022-11-24T07:43:26.615Z,0.93
2022-11-24T07:45:53.461Z,1.10
2022-11-24T07:48:20.210Z,1.00
2022-11-24T07:50:51.133Z,1.05
2022-11-24T07:53:22.080Z,0.80
2022-11-24T07:55:53.514Z,1.60
2022-11-24T07:58:20.155Z,0.90
2022-11-24T08:00:46.808Z,1.02
2022-11-24T08:03:13.545Z,1.33
2022-11-24T08:06:00.669Z,1.20
2022-11-24T08:08:28.280Z,0.90
2022-11-24T08:10:54.862Z,1.30
2022-11-24T08:13:21.478Z,1.23
2022-11-24T08:15:48.192Z,1.42
2022-11-24T08:18:14.803Z,1.25
2022-11-24T08:20:41.328Z,1.33
2022-11-24T08:23:08.193Z,1.65
2022-11-24T08:25:36.159Z,1.48
2022-11-24T08:28:04.112Z,1.33
2022-11-24T08:30:31.138Z,1.70
2022-11-24T08:32:58.745Z,1.90
2022-11-24T08:35:25.395Z,1.30
2022-11-24T08:37:52.200Z,1.60
2022-11-24T08:40:18.952Z,1.75
2022-11-24T08:42:46.992Z,1.40
2022-11-24T08:45:21.073Z,1.40
2022-11-24T08:47:51.804Z,1.95
2022-11-24T08:50:18.407Z,1.85
2022-11-24T08:52:45.010Z,2.08
2022-11-24T08:55:11.736Z,2.03
2022-11-24T08:57:38.371Z,1.63
2022-11-24T09:00:07.504Z,2.50
2022-11-24T09:02:34.121Z,1.75
2022-11-24T09:05:00.798Z,2.50
2022-11-24T09:07:27.491Z,1.77
2022-11-24T09:09:54.159Z,2.03
2022-11-24T09:12:20.957Z,1.80
2022-11-24T09:14:47.521Z,2.20
2022-11-24T09:17:15.473Z,2.25
2022-11-24T09:19:42.160Z,1.95
2022-11-24T09:22:08.660Z,2.67
2022-11-24T09:24:35.391Z,1.63
2022-11-24T09:27:02.080Z,2.03
2022-11-24T09:29:28.656Z,1.98
2022-11-24T09:31:55.220Z,2.40
2022-11-24T09:34:23.256Z,1.80
2022-11-24T09:36:49.829Z,2.83
2022-11-24T09:39:16.429Z,2.33
2022-11-24T09:41:54.806Z,2.55
2022-11-24T09:45:05.959Z,1.55
2022-11-24T09:47:43.840Z,2.35
2022-11-24T09:50:16.278Z,1.98
2022-11-24T09:52:49.701Z,1.88
2022-11-24T09:55:34.867Z,2.30
2022-11-24T09:58:14.510Z,2.28
2022-11-24T10:00:41.893Z,2.28
2022-11-24T10:03:16.381Z,1.90
2022-11-24T10:05:48.527Z,2.45
2022-11-24T10:08:27.593Z,2.05
2022-11-24T10:10:57.697Z,1.80
2022-11-24T10:13:40.177Z,2.33
2022-11-24T10:16:14.478Z,1.95
2022-11-24T10:18:49.281Z,1.90
2022-11-24T10:21:47.293Z,1.88
2022-11-24T10:24:38.575Z,2.10
2022-11-24T10:27:13.799Z,1.90
2022-11-24T10:29:41.652Z,1.73
2022-11-24T10:32:14.940Z,1.80
2022-11-24T10:34:44.570Z,1.67
2022-11-24T10:37:18.174Z,1.70
2022-11-24T10:39:54.791Z,2.45
2022-11-24T10:42:28.149Z,1.90
2022-11-24T10:45:01.783Z,1.85
2022-11-24T10:47:28.759Z,1.90
2022-11-24T10:50:00.153Z,1.90
2022-11-24T10:52:29.686Z,2.17
2022-11-24T10:54:58.770Z,2.22
2022-11-24T10:57:31.494Z,2.22
2022-11-24T10:59:58.333Z,1.90
2022-11-24T11:02:42.915Z,1.67
2022-11-24T11:05:36.539Z,2.10
2022-11-24T11:08:19.686Z,2.90
2022-11-24T11:10:48.205Z,2.00
2022-11-24T11:13:26.901Z,2.08
2022-11-24T11:15:54.570Z,3.05
2022-11-24T11:18:22.268Z,2.55
2022-11-24T11:20:51.633Z,2.33
2022-11-24T11:23:26.352Z,2.03
2022-11-24T11:26:17.891Z,2.10
2022-11-24T11:28:57.711Z,2.00
2022-11-24T11:31:24.684Z,2.22
2022-11-24T11:34:07.376Z,2.30
2022-11-24T11:36:40.926Z,1.95
2022-11-24T11:39:21.804Z,1.90
2022-11-24T11:41:51.776Z,2.05
2022-11-24T11:44:29.914Z,2.58
2022-11-24T11:46:58.981Z,2.60
2022-11-24T11:49:25.894Z,2.10
2022-11-24T11:52:07.729Z,2.47
2022-11-24T11:54:55.574Z,2.55
2022-11-24T11:57:33.016Z,2.47
2022-11-24T12:00:10.901Z,2.05
2022-11-24T12:03:07.872Z,2.80
2022-11-24T12:05:47.313Z,2.10
2022-11-24T12:08:27.098Z,2.47
2022-11-24T12:11:02.069Z,2.22
2022-11-24T12:13:54.484Z,2.50
2022-11-24T12:16:30.932Z,2.28
2022-11-24T12:19:15.716Z,2.35
2022-11-24T12:21:52.031Z,2.30
2022-11-24T12:24:30.600Z,3.03
2022-11-24T12:27:03.305Z,2.50
2022-11-24T12:29:57.957Z,2.95
2022-11-24T12:32:45.834Z,2.45
2022-11-24T12:35:22.189Z,2.55
2022-11-24T12:38:02.237Z,1.83
2022-11-24T12:40:46.405Z,1.90
2022-11-24T12:43:21.298Z,2.05
2022-11-24T12:45:57.703Z,2.67
2022-11-24T12:48:38.827Z,2.75
2022-11-24T12:51:14.820Z,2.33
2022-11-24T12:53:43.374Z,2.65
2022-11-24T12:56:13.069Z,2.55
2022-11-24T12:58:48.875Z,2.42
2022-11-24T13:01:25.212Z,2.17
2022-11-24T13:04:04.426Z,2.08
2022-11-24T13:06:47.453Z,2.60
2022-11-24T13:09:16.177Z,2.45
2022-11-24T13:11:44.674Z,2.67
2022-11-24T13:14:31.493Z,2.60
2022-11-24T13:17:28.053Z,2.55
2022-11-24T13:19:46.444Z,2.92
2022-11-24T13:22:22.943Z,2.65
2022-11-24T13:25:12.592Z,2.50
2022-11-24T13:27:42.135Z,2.75
2022-11-24T13:30:51.287Z,2.47
2022-11-24T13:33:30.284Z,2.65
2022-11-24T13:36:33.904Z,2.38
2022-11-24T13:39:03.123Z,2.47
2022-11-24T13:42:06.404Z,3.15
2022-11-24T13:44:47.261Z,2.40
2022-11-24T13:47:41.113Z,2.53
2022-11-24T13:50:22.867Z,2.60
2022-11-24T13:52:53.558Z,2.95
2022-11-24T13:55:30.042Z,2.35
2022-11-24T13:58:00.384Z,2.78
2022-11-24T14:00:29.594Z,2.63
2022-11-24T14:03:00.916Z,3.30
2022-11-24T14:05:35.889Z,2.85
2022-11-24T14:08:05.510Z,2.30
2022-11-24T14:10:34.654Z,2.47
2022-11-24T14:13:27.325Z,2.40
2022-11-24T14:16:02.963Z,2.13
2022-11-24T14:18:30.056Z,3.22
2022-11-24T14:20:59.418Z,2.72
2022-11-24T14:23:26.205Z,2.40
2022-11-24T14:25:53.510Z,2.53
2022-11-24T14:28:24.401Z,2.53
2022-11-24T14:30:51.726Z,2.50
2022-11-24T14:33:19.977Z,2.60
2022-11-24T14:35:52.085Z,3.00
2022-11-24T14:38:20.131Z,2.25
2022-11-24T14:40:49.569Z,1.85
2022-11-24T14:43:20.725Z,2.65
2022-11-24T14:45:50.268Z,2.38
2022-11-24T14:48:18.220Z,2.65
2022-11-24T14:50:45.157Z,2.35
2022-11-24T14:53:16.285Z,2.40
2022-11-24T14:55:44.339Z,2.78
2022-11-24T14:58:30.058Z,2.22
2022-11-24T15:01:19.586Z,2.28
2022-11-24T15:03:46.839Z,2.10
2022-11-24T15:06:18.406Z,2.58
2022-11-24T15:08:47.444Z,2.63
2022-11-24T15:11:15.817Z,2.22
2022-11-24T15:13:53.350Z,3.22
2022-11-24T15:16:22.826Z,2.40
2022-11-24T15:18:57.178Z,2.50
2022-11-24T15:21:31.590Z,2.53
2022-11-24T15:24:05.700Z,3.08
2022-11-24T15:26:40.017Z,2.35
2022-11-24T15:29:08.888Z,2.42
2022-11-24T15:31:35.687Z,2.53
2022-11-24T15:34:02.298Z,2.40
2022-11-24T15:36:28.999Z,2.15
2022-11-24T15:38:55.751Z,2.35
2022-11-24T15:41:27.569Z,2.47
2022-11-24T15:43:55.983Z,3.15
2022-11-24T15:46:22.602Z,2.50
2022-11-24T15:48:49.394Z,2.50
2022-11-24T15:51:16.169Z,2.63
2022-11-24T15:53:45.871Z,2.28
2022-11-24T15:56:22.193Z,2.70
2022-11-24T15:58:48.853Z,2.47
2022-11-24T16:01:17.109Z,2.95
2022-11-24T16:03:47.600Z,2.60
2022-11-24T16:06:24.290Z,2.67
2022-11-24T16:08:52.324Z,3.58
2022-11-24T16:11:19.005Z,2.88
2022-11-24T16:13:51.867Z,2.50
2022-11-24T16:16:22.794Z,2.58
2022-11-24T16:18:49.595Z,2.03
2022-11-24T16:21:19.596Z,2.63
2022-11-24T16:23:46.460Z,2.05
2022-11-24T16:26:13.315Z,3.22
2022-11-24T16:28:40.061Z,2.97
2022-11-24T16:31:06.810Z,2.78
2022-11-24T16:33:34.980Z,2.63
2022-11-24T16:36:01.840Z,2.90
2022-11-24T16:38:28.506Z,3.17
2022-11-24T16:40:55.587Z,2.67
2022-11-24T16:43:22.154Z,2.60
2022-11-24T16:45:59.560Z,2.80
2022-11-24T16:48:26.225Z,2.78
2022-11-24T16:50:54.317Z,3.13
2022-11-24T16:53:21.133Z,2.72
2022-11-24T16:55:56.628Z,2.45
2022-11-24T16:58:23.382Z,2.45
2022-11-24T17:00:50.053Z,2.53
2022-11-24T17:03:17.078Z,2.83
2022-11-24T17:05:44.229Z,2.50
2022-11-24T17:08:26.723Z,3.25
2022-11-24T17:11:03.170Z,2.88
2022-11-24T17:13:37.069Z,2.67
2022-11-24T17:16:25.078Z,2.50
2022-11-24T17:18:52.425Z,2.92
2022-11-24T17:21:21.098Z,1.92
2022-11-24T17:23:53.015Z,3.17
2022-11-24T17:26:19.640Z,2.15
2022-11-24T17:28:52.807Z,2.83
2022-11-24T17:34:12.632Z,3.25
2022-11-24T17:36:39.643Z,2.78
2022-11-24T17:39:09.094Z,2.25
2022-11-24T17:41:36.023Z,2.10
2022-11-24T17:44:03.214Z,2.65
2022-11-24T17:46:30.699Z,2.30
2022-11-24T17:48:57.988Z,2.72
2022-11-24T17:51:26.133Z,2.47
2022-11-24T17:53:56.037Z,2.50
2022-11-24T17:56:25.962Z,2.13
2022-11-24T17:58:53.896Z,2.47
2022-11-24T18:01:21.570Z,2.97
2022-11-24T18:03:53.175Z,2.70
2022-11-24T18:06:20.918Z,2.70
2022-11-24T18:08:47.726Z,2.65
2022-11-24T18:11:16.330Z,3.00
2022-11-24T18:14:01.131Z,2.53
2022-11-24T18:16:29.167Z,2.10
2022-11-24T18:19:07.303Z,2.63
2022-11-24T18:21:35.522Z,2.63
2022-11-24T18:24:02.181Z,2.63
2022-11-24T18:26:28.839Z,2.40
2022-11-24T18:28:56.702Z,2.42
2022-11-24T18:31:23.367Z,2.20
2022-11-24T18:33:49.973Z,3.13
2022-11-24T18:36:19.432Z,2.05
2022-11-24T18:38:45.991Z,2.53
2022-11-24T18:41:13.869Z,2.00
2022-11-24T18:43:40.747Z,2.10
2022-11-24T18:46:11.286Z,2.58
2022-11-24T18:48:37.976Z,2.38
2022-11-24T18:51:05.243Z,2.22
2022-11-24T18:53:31.843Z,2.42
2022-11-24T18:55:59.863Z,1.95
2022-11-24T18:58:28.147Z,2.50
2022-11-24T19:00:54.922Z,2.22
2022-11-24T19:03:22.965Z,2.17
2022-11-24T19:05:49.677Z,2.40
2022-11-24T19:08:16.414Z,2.45
2022-11-24T19:10:45.510Z,2.67
2022-11-24T19:13:12.189Z,2.42
2022-11-24T19:15:38.736Z,1.90
2022-11-24T19:18:05.638Z,2.63
2022-11-24T19:20:35.070Z,1.83
2022-11-24T19:23:02.019Z,2.75
2022-11-24T19:25:28.561Z,2.53
2022-11-24T19:27:55.322Z,2.40
2022-11-24T19:30:21.995Z,2.88
2022-11-24T19:32:48.650Z,2.45
2022-11-24T19:35:15.297Z,2.13
2022-11-24T19:37:43.337Z,3.05
2022-11-24T19:40:10.626Z,3.03
2022-11-24T19:42:37.315Z,3.03
2022-11-24T19:45:04.780Z,2.65
2022-11-24T19:47:31.436Z,2.55
2022-11-24T19:49:58.052Z,2.78
2022-11-24T19:52:25.126Z,2.80
2022-11-24T19:54:53.052Z,2.58
2022-11-24T19:57:19.723Z,2.90
2022-11-24T19:59:46.249Z,3.17
2022-11-24T20:02:13.052Z,2.83
2022-11-24T20:04:39.694Z,3.35
2022-11-24T20:07:06.318Z,4.20
2022-11-24T20:09:32.881Z,3.17
2022-11-24T20:12:01.002Z,2.67
2022-11-24T20:14:27.757Z,3.97
2022-11-24T20:16:54.510Z,2.88
2022-11-24T20:19:21.225Z,2.50
2022-11-24T20:21:47.861Z,3.20
2022-11-24T20:24:17.060Z,2.28
2022-11-24T20:26:45.843Z,2.80
2022-11-24T20:29:14.864Z,3.63
2022-11-24T20:31:43.629Z,3.17
2022-11-24T20:34:10.951Z,3.35
2022-11-24T20:36:39.563Z,3.00
2022-11-24T20:39:08.776Z,2.92
2022-11-24T20:41:36.669Z,3.10
2022-11-24T20:44:05.673Z,3.03
2022-11-24T20:46:36.738Z,3.40
2022-11-24T20:49:04.560Z,2.95
2022-11-24T20:51:33.645Z,2.65
2022-11-24T20:54:02.699Z,2.45
2022-11-24T20:56:31.383Z,2.85
2022-11-24T20:58:58.541Z,2.95
2022-11-24T21:01:27.844Z,3.00
2022-11-24T21:03:57.827Z,2.55
2022-11-24T21:06:25.098Z,2.60
2022-11-24T21:08:51.739Z,2.53
2022-11-24T21:11:19.203Z,2.90
2022-11-24T21:13:46.811Z,2.53
2022-11-24T21:16:15.259Z,2.67
2022-11-24T21:18:42.165Z,3.47
2022-11-24T21:21:10.694Z,3.10
2022-11-24T21:23:37.456Z,3.20
2022-11-24T21:26:07.447Z,3.15
2022-11-24T21:28:37.860Z,2.78
2022-11-24T21:31:05.133Z,3.28
2022-11-24T21:33:31.796Z,2.70
2022-11-24T21:36:01.161Z,3.35
2022-11-24T21:38:29.524Z,3.25
2022-11-24T21:40:59.412Z,3.47
2022-11-24T21:43:27.333Z,3.05
2022-11-24T21:45:53.976Z,2.72
2022-11-24T21:48:20.700Z,3.35
2022-11-24T21:50:47.297Z,3.50
2022-11-24T21:53:13.937Z,3.28
2022-11-24T21:55:41.851Z,3.00
2022-11-24T21:58:08.479Z,3.13
2022-11-24T22:00:35.217Z,3.03
2022-11-24T22:03:01.776Z,3.00
2022-11-24T22:05:28.491Z,2.78
2022-11-24T22:07:55.114Z,2.97
2022-11-24T22:10:21.709Z,2.95
2022-11-24T22:12:49.740Z,2.97
2022-11-24T22:15:16.601Z,3.08
2022-11-24T22:17:43.146Z,2.83
2022-11-24T22:20:10.394Z,3.40
2022-11-24T22:22:37.059Z,2.88
2022-11-24T22:25:04.348Z,2.63
2022-11-24T22:27:30.993Z,2.92
2022-11-24T22:29:59.065Z,3.08
2022-11-24T22:32:25.652Z,3.38
2022-11-24T22:34:52.228Z,2.78
2022-11-24T22:37:18.804Z,2.92
2022-11-24T22:39:45.436Z,3.25
2022-11-24T22:42:12.074Z,2.75
2022-11-24T22:44:38.744Z,2.72
2022-11-24T22:47:06.712Z,2.80
2022-11-24T22:49:33.341Z,3.45
2022-11-24T22:51:59.938Z,2.53
2022-11-24T22:54:30.078Z,3.92
2022-11-24T22:56:56.627Z,2.50
2022-11-24T22:59:23.351Z,2.38
2022-11-24T23:01:50.010Z,2.90
2022-11-24T23:04:18.084Z,3.22
2022-11-24T23:06:44.762Z,2.30
2022-11-24T23:09:11.816Z,2.22
2022-11-24T23:11:39.869Z,2.40
2022-11-24T23:14:08.151Z,2.60
2022-11-24T23:16:34.897Z,2.83
2022-11-24T23:19:01.576Z,2.45
2022-11-24T23:21:31.460Z,2.75
2022-11-24T23:23:59.099Z,2.35
2022-11-24T23:26:27.497Z,2.72
2022-11-24T23:28:54.778Z,2.90
2022-11-24T23:31:23.447Z,2.58
2022-11-24T23:33:50.586Z,3.17
2022-11-24T23:36:19.588Z,2.95
2022-11-24T23:38:48.341Z,2.80
2022-11-24T23:41:16.349Z,2.30
2022-11-24T23:43:43.194Z,2.90
2022-11-24T23:46:11.409Z,2.15
2022-11-24T23:48:39.137Z,3.08
2022-11-24T23:51:07.083Z,2.70
2022-11-24T23:53:34.545Z,2.70
2022-11-24T23:56:03.222Z,2.55
2022-11-24T23:58:30.615Z,2.63
